createdAt,value
2017-09-16T00:02:21.226Z,71.40
2017-09-16T00:04:48.795Z,71.40
2017-09-16T00:07:16.367Z,71.40
2017-09-16T00:09:44.005Z,71.30
2017-09-16T00:12:11.547Z,71.30
2017-09-16T00:14:39.547Z,71.40
2017-09-16T00:17:07.137Z,71.30
2017-09-16T00:19:34.703Z,71.30
2017-09-16T00:22:03.088Z,71.20
2017-09-16T00:24:30.689Z,71.80
2017-09-16T00:26:58.674Z,71.20
2017-09-16T00:29:26.351Z,71.30
2017-09-16T00:31:53.949Z,71.20
2017-09-16T00:34:21.604Z,71.80
2017-09-16T00:36:49.152Z,71.20
2017-09-16T00:39:17.836Z,71.20
2017-09-16T00:41:45.672Z,71.20
2017-09-16T00:44:13.287Z,71.10
2017-09-16T00:46:40.896Z,71.10
2017-09-16T00:49:08.499Z,71.10
2017-09-16T00:51:36.539Z,71.10
2017-09-16T00:54:04.084Z,71.60
2017-09-16T00:56:31.664Z,71.40
2017-09-16T00:59:00.052Z,71.80
2017-09-16T01:01:27.845Z,71.70
2017-09-16T01:03:55.459Z,71.60
2017-09-16T01:06:23.009Z,72.00
2017-09-16T01:08:52.362Z,72.20
2017-09-16T01:11:19.973Z,72.20
2017-09-16T01:13:47.527Z,72.60
2017-09-16T01:16:15.133Z,72.50
2017-09-16T01:18:42.695Z,72.30
2017-09-16T01:21:10.559Z,72.40
2017-09-16T01:23:38.120Z,72.60
2017-09-16T01:26:05.663Z,72.60
2017-09-16T01:28:34.052Z,72.60
2017-09-16T01:31:01.599Z,72.60
2017-09-16T01:33:30.238Z,72.60
2017-09-16T01:35:57.800Z,72.50
2017-09-16T01:38:25.360Z,72.50
2017-09-16T01:40:52.979Z,72.60
2017-09-16T01:43:20.551Z,73.30
2017-09-16T01:45:48.566Z,72.90
2017-09-16T01:48:16.128Z,72.90
2017-09-16T01:50:43.737Z,72.90
2017-09-16T01:53:11.351Z,72.90
2017-09-16T01:55:38.936Z,72.90
2017-09-16T01:58:06.867Z,72.70
2017-09-16T02:00:34.415Z,73.00
2017-09-16T02:03:01.971Z,72.80
2017-09-16T02:05:29.595Z,72.90
2017-09-16T02:07:57.311Z,73.00
2017-09-16T02:10:25.368Z,73.00
2017-09-16T02:12:52.942Z,73.00
2017-09-16T02:15:20.556Z,73.00
2017-09-16T02:17:48.182Z,73.20
2017-09-16T02:20:15.769Z,73.30
2017-09-16T02:22:43.699Z,73.30
2017-09-16T02:25:11.292Z,73.20
2017-09-16T02:27:38.864Z,73.20
2017-09-16T02:30:06.458Z,73.30
2017-09-16T02:32:34.090Z,73.60
2017-09-16T02:35:02.194Z,73.70
2017-09-16T02:37:29.752Z,73.40
2017-09-16T02:39:57.701Z,73.60
2017-09-16T02:42:25.296Z,74.00
2017-09-16T02:44:52.863Z,74.50
2017-09-16T02:47:20.715Z,74.50
2017-09-16T02:49:48.274Z,74.90
2017-09-16T02:52:15.827Z,74.40
2017-09-16T02:54:43.451Z,74.40
2017-09-16T02:57:11.008Z,74.50
2017-09-16T02:59:38.890Z,74.40
2017-09-16T03:02:06.451Z,74.40
2017-09-16T03:04:34.039Z,74.40
2017-09-16T03:07:01.797Z,74.40
2017-09-16T03:09:29.394Z,74.40
2017-09-16T03:11:57.575Z,74.40
2017-09-16T03:14:25.907Z,74.40
2017-09-16T03:16:53.508Z,74.40
2017-09-16T03:19:21.903Z,74.50
2017-09-16T03:21:49.460Z,74.40
2017-09-16T03:24:17.500Z,74.40
2017-09-16T03:26:45.074Z,74.40
2017-09-16T03:29:12.634Z,74.30
2017-09-16T03:31:41.010Z,74.30
2017-09-16T03:34:08.581Z,74.30
2017-09-16T03:36:37.223Z,74.30
2017-09-16T03:39:04.764Z,74.30
2017-09-16T03:41:32.284Z,74.30
2017-09-16T03:43:59.906Z,74.30
2017-09-16T03:46:27.479Z,74.20
2017-09-16T03:48:55.354Z,74.20
2017-09-16T03:51:23.691Z,74.10
2017-09-16T03:53:51.299Z,74.10
2017-09-16T03:56:19.650Z,74.40
2017-09-16T03:58:47.234Z,74.40
2017-09-16T04:01:16.023Z,74.10
2017-09-16T04:03:43.579Z,74.10
2017-09-16T04:06:11.914Z,74.10
2017-09-16T04:08:39.530Z,74.10
2017-09-16T04:11:07.882Z,74.30
2017-09-16T04:13:37.482Z,74.40
2017-09-16T04:16:05.835Z,74.70
2017-09-16T04:18:33.395Z,74.70
2017-09-16T04:21:01.002Z,74.80
2017-09-16T04:23:28.598Z,74.50
2017-09-16T04:25:56.607Z,74.10
2017-09-16T04:28:24.162Z,74.10
2017-09-16T04:30:51.712Z,74.10
2017-09-16T04:33:19.579Z,74.70
2017-09-16T04:35:47.127Z,74.80
2017-09-16T04:38:15.160Z,74.70
2017-09-16T04:40:43.479Z,74.70
2017-09-16T04:43:11.000Z,74.70
2017-09-16T04:45:38.590Z,74.80
2017-09-16T04:48:06.152Z,74.70
2017-09-16T04:50:34.046Z,74.70
2017-09-16T04:53:01.648Z,74.80
2017-09-16T04:55:29.778Z,74.50
2017-09-16T04:57:57.422Z,74.90
2017-09-16T05:00:24.977Z,74.50
2017-09-16T05:02:52.983Z,74.60
2017-09-16T05:05:21.318Z,74.80
2017-09-16T05:07:48.896Z,74.80
2017-09-16T05:10:16.489Z,74.80
2017-09-16T05:12:44.056Z,74.70
2017-09-16T05:15:12.712Z,74.70
2017-09-16T05:17:40.274Z,74.60
2017-09-16T05:20:07.875Z,74.70
2017-09-16T05:22:35.701Z,74.70
2017-09-16T05:25:03.292Z,74.80
2017-09-16T05:27:31.247Z,75.10
2017-09-16T05:29:59.573Z,75.40
2017-09-16T05:32:27.175Z,75.30
2017-09-16T05:34:54.803Z,75.30
2017-09-16T05:37:22.364Z,75.10
2017-09-16T05:39:50.393Z,75.70
2017-09-16T05:42:17.995Z,75.30
2017-09-16T05:44:45.561Z,75.10
2017-09-16T05:47:13.167Z,75.10
2017-09-16T05:49:41.491Z,75.40
2017-09-16T05:52:09.514Z,75.40
2017-09-16T05:54:37.839Z,75.30
2017-09-16T05:57:06.409Z,75.20
2017-09-16T05:59:34.019Z,74.80
2017-09-16T06:02:01.575Z,73.80
2017-09-16T06:04:29.590Z,74.30
2017-09-16T06:06:57.169Z,73.90
2017-09-16T06:09:24.862Z,74.20
2017-09-16T06:11:52.502Z,74.40
2017-09-16T06:14:20.098Z,74.40
2017-09-16T06:16:48.780Z,74.60
2017-09-16T06:19:16.326Z,74.60
2017-09-16T06:21:43.929Z,74.60
2017-09-16T06:24:11.531Z,74.70
2017-09-16T06:26:39.123Z,74.70
2017-09-16T06:29:07.059Z,74.70
2017-09-16T06:31:34.649Z,74.70
2017-09-16T06:34:02.237Z,74.70
2017-09-16T06:36:29.824Z,74.80
2017-09-16T06:38:57.384Z,74.80
2017-09-16T06:41:25.573Z,74.80
2017-09-16T06:43:53.139Z,74.80
2017-09-16T06:46:20.732Z,74.80
2017-09-16T06:48:49.436Z,75.00
2017-09-16T06:51:17.229Z,75.00
2017-09-16T06:53:44.798Z,74.50
2017-09-16T06:56:12.414Z,74.40
2017-09-16T06:58:39.966Z,74.60
2017-09-16T07:01:07.912Z,74.40
2017-09-16T07:03:35.526Z,74.20
2017-09-16T07:06:03.292Z,74.10
2017-09-16T07:08:31.286Z,73.80
2017-09-16T07:10:58.843Z,73.60
2017-09-16T07:13:26.423Z,73.40
2017-09-16T07:15:54.012Z,73.30
2017-09-16T07:18:21.581Z,73.20
2017-09-16T07:20:49.682Z,73.20
2017-09-16T07:23:17.298Z,73.20
2017-09-16T07:25:45.903Z,73.30
2017-09-16T07:28:13.525Z,73.20
2017-09-16T07:30:41.395Z,73.30
2017-09-16T07:33:08.949Z,73.20
2017-09-16T07:35:36.543Z,73.10
2017-09-16T07:38:04.518Z,73.00
2017-09-16T07:40:32.191Z,72.90
2017-09-16T07:42:59.742Z,72.50
2017-09-16T07:45:27.328Z,72.40
2017-09-16T07:47:54.926Z,72.40
2017-09-16T07:50:22.975Z,72.30
2017-09-16T07:52:50.535Z,72.60
2017-09-16T07:55:18.108Z,72.80
2017-09-16T07:57:45.693Z,72.90
2017-09-16T08:00:13.252Z,72.90
2017-09-16T08:02:41.912Z,73.00
2017-09-16T08:05:09.463Z,73.00
2017-09-16T08:07:37.046Z,73.10
2017-09-16T08:10:05.403Z,73.20
2017-09-16T08:12:34.495Z,73.10
2017-09-16T08:15:02.452Z,73.10
2017-09-16T08:17:30.044Z,73.20
2017-09-16T08:19:58.367Z,73.30
2017-09-16T08:22:26.097Z,73.20
2017-09-16T08:24:54.418Z,73.40
2017-09-16T08:27:22.374Z,73.40
2017-09-16T08:29:50.104Z,73.30
2017-09-16T08:32:18.450Z,73.30
2017-09-16T08:34:46.060Z,73.20
2017-09-16T08:37:13.644Z,73.00
2017-09-16T08:39:41.778Z,73.10
2017-09-16T08:42:10.084Z,73.00
2017-09-16T08:44:37.640Z,73.00
2017-09-16T08:47:05.239Z,73.10
2017-09-16T08:49:32.789Z,73.20
2017-09-16T08:52:00.713Z,73.20
2017-09-16T08:54:28.263Z,73.20
2017-09-16T08:56:55.820Z,73.30
2017-09-16T08:59:24.193Z,73.50
2017-09-16T09:01:51.814Z,73.40
2017-09-16T09:04:20.732Z,73.50
2017-09-16T09:06:48.281Z,73.60
2017-09-16T09:09:15.876Z,73.80
2017-09-16T09:11:43.487Z,73.80
2017-09-16T09:14:11.094Z,73.90
2017-09-16T09:16:39.983Z,73.90
2017-09-16T09:19:08.339Z,74.00
2017-09-16T09:21:35.951Z,73.90
2017-09-16T09:24:03.613Z,74.00
2017-09-16T09:26:31.247Z,73.90
2017-09-16T09:28:59.622Z,74.30
2017-09-16T09:31:27.179Z,74.10
2017-09-16T09:33:56.030Z,74.30
2017-09-16T09:36:23.598Z,74.30
2017-09-16T09:38:51.177Z,74.40
2017-09-16T09:41:18.798Z,74.30
2017-09-16T09:43:46.387Z,74.10
2017-09-16T09:46:14.639Z,74.10
2017-09-16T09:48:42.497Z,74.00
2017-09-16T09:51:10.076Z,73.90
2017-09-16T09:53:37.670Z,73.80
2017-09-16T09:56:05.221Z,73.60
2017-09-16T09:58:33.880Z,73.70
2017-09-16T10:01:01.475Z,73.70
2017-09-16T10:03:29.088Z,73.70
2017-09-16T10:05:57.133Z,73.70
2017-09-16T10:08:24.679Z,73.60
2017-09-16T10:10:52.600Z,73.60
2017-09-16T10:13:20.262Z,73.50
2017-09-16T10:15:47.821Z,73.30
2017-09-16T10:18:15.522Z,73.00
2017-09-16T10:20:43.964Z,73.00
2017-09-16T10:23:11.933Z,72.90
2017-09-16T10:25:39.512Z,72.90
2017-09-16T10:28:07.860Z,73.20
2017-09-16T10:30:35.549Z,73.10
2017-09-16T10:33:03.895Z,73.30
2017-09-16T10:35:31.887Z,73.20
2017-09-16T10:37:59.530Z,73.50
2017-09-16T10:40:27.086Z,73.60
2017-09-16T10:42:54.721Z,74.10
2017-09-16T10:45:22.318Z,73.90
2017-09-16T10:47:51.003Z,74.10
2017-09-16T10:50:19.342Z,74.10
2017-09-16T10:52:46.902Z,74.20
2017-09-16T10:55:14.483Z,74.40
2017-09-16T10:57:42.060Z,74.40
2017-09-16T11:00:10.130Z,74.40
2017-09-16T11:02:37.740Z,74.40
2017-09-16T11:05:05.330Z,74.40
2017-09-16T11:07:33.033Z,74.30
2017-09-16T11:10:00.679Z,74.30
2017-09-16T11:12:28.657Z,74.20
2017-09-16T11:14:56.274Z,74.30
2017-09-16T11:17:23.903Z,74.10
2017-09-16T11:19:51.544Z,74.10
2017-09-16T11:22:19.130Z,73.90
2017-09-16T11:24:47.760Z,73.40
2017-09-16T11:27:15.349Z,73.40
2017-09-16T11:29:42.943Z,73.50
2017-09-16T11:32:10.607Z,73.60
2017-09-16T11:34:38.194Z,73.80
2017-09-16T11:37:06.303Z,73.10
2017-09-16T11:39:33.880Z,72.50
2017-09-16T11:42:01.431Z,72.30
2017-09-16T11:44:29.305Z,72.80
2017-09-16T11:46:57.649Z,71.40
2017-09-16T11:49:25.226Z,71.40
2017-09-16T11:51:52.851Z,71.10
2017-09-16T11:54:20.583Z,70.80
2017-09-16T11:56:48.368Z,70.60
2017-09-16T11:59:15.995Z,70.40
2017-09-16T12:01:43.602Z,70.10
2017-09-16T12:04:11.171Z,70.10
2017-09-16T12:06:39.060Z,70.10
2017-09-16T12:09:07.018Z,70.10
2017-09-16T12:11:34.576Z,70.20
2017-09-16T12:14:02.657Z,69.60
2017-09-16T12:16:30.986Z,68.60
2017-09-16T12:18:58.578Z,68.60
2017-09-16T12:21:26.361Z,67.70
2017-09-16T12:23:53.930Z,67.70
2017-09-16T12:26:21.833Z,67.50
2017-09-16T12:28:49.419Z,67.00
2017-09-16T12:31:17.019Z,67.00
2017-09-16T12:33:44.684Z,66.80
2017-09-16T12:36:12.251Z,66.90
2017-09-16T12:38:41.139Z,66.70
2017-09-16T12:41:09.484Z,66.50
2017-09-16T12:43:37.080Z,66.50
2017-09-16T12:46:05.448Z,66.70
2017-09-16T12:48:32.998Z,66.70
2017-09-16T12:51:01.038Z,66.90
2017-09-16T12:53:28.627Z,66.80
2017-09-16T12:55:56.203Z,66.40
2017-09-16T12:58:24.588Z,67.10
2017-09-16T13:00:52.162Z,67.10
2017-09-16T13:03:20.787Z,67.40
2017-09-16T13:05:48.531Z,67.40
2017-09-16T13:08:16.129Z,67.60
2017-09-16T13:10:43.784Z,67.80
2017-09-16T13:13:11.383Z,67.80
2017-09-16T13:15:39.312Z,68.20
2017-09-16T13:18:06.897Z,68.20
2017-09-16T13:20:35.251Z,68.40
2017-09-16T13:23:02.852Z,68.50
2017-09-16T13:25:30.629Z,68.20
2017-09-16T13:27:58.678Z,68.20
2017-09-16T13:30:27.001Z,68.40
2017-09-16T13:32:54.567Z,68.40
2017-09-16T13:35:22.217Z,68.50
2017-09-16T13:37:49.837Z,68.60
2017-09-16T13:40:17.743Z,68.60
2017-09-16T13:42:45.312Z,68.50
2017-09-16T13:45:12.887Z,68.50
2017-09-16T13:47:40.492Z,68.40
2017-09-16T13:50:08.189Z,68.20
2017-09-16T13:52:36.080Z,68.10
2017-09-16T13:55:03.652Z,68.10
2017-09-16T13:57:32.757Z,67.80
2017-09-16T14:00:01.136Z,67.80
2017-09-16T14:02:29.463Z,67.60
2017-09-16T14:04:57.375Z,67.60
2017-09-16T14:07:26.446Z,66.10
2017-09-16T14:09:54.168Z,66.10
2017-09-16T14:12:21.756Z,66.20
2017-09-16T14:14:49.518Z,66.00
2017-09-16T14:17:17.451Z,66.40
2017-09-16T14:19:45.793Z,65.90
2017-09-16T14:22:13.368Z,65.80
2017-09-16T14:24:40.968Z,65.80
2017-09-16T14:27:08.534Z,65.80
2017-09-16T14:29:36.559Z,65.80
2017-09-16T14:32:04.100Z,65.80
2017-09-16T14:34:31.655Z,65.80
2017-09-16T14:36:59.261Z,65.80
2017-09-16T14:39:26.881Z,65.90
2017-09-16T14:41:55.056Z,65.90
2017-09-16T14:44:22.623Z,65.90
2017-09-16T14:46:50.216Z,65.90
2017-09-16T14:49:18.604Z,65.80
2017-09-16T14:51:46.192Z,65.80
2017-09-16T14:54:14.171Z,65.80
2017-09-16T14:56:41.744Z,66.40
2017-09-16T14:59:09.312Z,65.40
2017-09-16T15:01:36.939Z,65.20
2017-09-16T15:04:04.499Z,65.20
2017-09-16T15:06:32.500Z,65.00
2017-09-16T15:09:00.051Z,65.60
2017-09-16T15:11:27.619Z,65.50
2017-09-16T15:13:55.237Z,65.50
2017-09-16T15:16:22.840Z,65.50
2017-09-16T15:18:52.441Z,65.30
2017-09-16T15:21:20.039Z,65.30
2017-09-16T15:23:47.654Z,65.30
2017-09-16T15:26:15.485Z,65.60
2017-09-16T15:28:43.053Z,65.40
2017-09-16T15:31:11.155Z,65.80
2017-09-16T15:33:38.860Z,65.70
2017-09-16T15:36:07.199Z,65.80
2017-09-16T15:38:34.978Z,65.80
2017-09-16T15:41:02.570Z,65.90
2017-09-16T15:43:30.490Z,66.20
2017-09-16T15:45:58.044Z,66.30
2017-09-16T15:48:25.636Z,66.70
2017-09-16T15:50:54.018Z,66.70
2017-09-16T15:53:21.606Z,66.70
2017-09-16T15:55:49.636Z,66.70
2017-09-16T15:58:17.192Z,66.90
2017-09-16T16:00:44.764Z,67.10
2017-09-16T16:03:12.395Z,67.10
2017-09-16T16:05:40.005Z,67.30
2017-09-16T16:08:07.967Z,67.40
2017-09-16T16:10:36.311Z,67.60
2017-09-16T16:13:03.863Z,67.60
2017-09-16T16:15:31.494Z,67.50
2017-09-16T16:17:59.073Z,67.30
2017-09-16T16:20:27.058Z,67.60
2017-09-16T16:22:54.629Z,67.60
2017-09-16T16:25:22.210Z,67.80
2017-09-16T16:27:50.600Z,68.20
2017-09-16T16:30:18.170Z,68.10
2017-09-16T16:32:46.067Z,68.10
2017-09-16T16:35:13.639Z,68.20
2017-09-16T16:37:41.264Z,68.70
2017-09-16T16:40:08.870Z,68.70
2017-09-16T16:42:36.472Z,68.70
2017-09-16T16:45:04.524Z,68.90
2017-09-16T16:47:32.843Z,69.00
2017-09-16T16:50:00.434Z,69.00
2017-09-16T16:52:28.058Z,69.00
2017-09-16T16:54:55.631Z,69.00
2017-09-16T16:57:23.816Z,69.50
2017-09-16T16:59:51.380Z,69.80
2017-09-16T17:02:18.951Z,69.90
2017-09-16T17:04:46.559Z,70.00
2017-09-16T17:07:14.151Z,70.10
2017-09-16T17:09:41.796Z,70.40
2017-09-16T17:12:09.379Z,70.50
2017-09-16T17:14:37.696Z,70.70
2017-09-16T17:17:06.083Z,71.00
2017-09-16T17:19:33.628Z,70.90
2017-09-16T17:22:02.280Z,71.90
2017-09-16T17:24:29.840Z,71.20
2017-09-16T17:26:57.683Z,71.50
2017-09-16T17:29:25.301Z,71.60
2017-09-16T17:31:53.699Z,72.50
2017-09-16T17:34:21.652Z,71.80
2017-09-16T17:36:49.967Z,72.30
2017-09-16T17:39:18.419Z,71.90
2017-09-16T17:41:46.777Z,72.20
2017-09-16T17:44:14.495Z,72.10
2017-09-16T17:46:42.440Z,72.20
2017-09-16T17:49:10.024Z,72.30
2017-09-16T17:51:37.794Z,72.60
2017-09-16T17:54:05.392Z,72.90
2017-09-16T17:56:33.027Z,72.70
2017-09-16T17:59:01.107Z,72.80
2017-09-16T18:01:28.719Z,72.60
2017-09-16T18:03:56.336Z,72.50
2017-09-16T18:06:23.960Z,72.40
2017-09-16T18:08:51.569Z,72.60
2017-09-16T18:11:19.643Z,72.70
2017-09-16T18:13:47.529Z,72.70
2017-09-16T18:16:15.107Z,72.70
2017-09-16T18:18:42.700Z,72.60
2017-09-16T18:21:10.291Z,72.60
2017-09-16T18:23:38.363Z,72.60
2017-09-16T18:26:06.735Z,72.60
2017-09-16T18:28:34.300Z,72.60
2017-09-16T18:31:01.916Z,72.60
2017-09-16T18:33:29.520Z,72.60
2017-09-16T18:35:57.677Z,72.60
2017-09-16T18:38:25.276Z,72.60
2017-09-16T18:40:52.902Z,72.60
2017-09-16T18:43:20.519Z,72.60
2017-09-16T18:45:48.152Z,72.60
2017-09-16T18:48:16.788Z,72.60
2017-09-16T18:50:44.327Z,72.60
2017-09-16T18:53:11.895Z,72.60
2017-09-16T18:55:39.517Z,72.60
2017-09-16T18:58:07.101Z,72.60
2017-09-16T19:00:34.783Z,72.50
2017-09-16T19:03:02.339Z,72.50
2017-09-16T19:05:30.234Z,72.50
2017-09-16T19:07:57.803Z,72.50
2017-09-16T19:10:25.418Z,72.50
2017-09-16T19:12:53.038Z,72.50
2017-09-16T19:15:21.403Z,72.40
2017-09-16T19:17:49.369Z,72.30
2017-09-16T19:20:16.922Z,72.50
2017-09-16T19:22:44.507Z,72.60
2017-09-16T19:25:12.882Z,73.20
2017-09-16T19:27:40.531Z,73.10
2017-09-16T19:30:09.090Z,73.10
2017-09-16T19:32:36.680Z,73.10
2017-09-16T19:35:04.252Z,73.40
2017-09-16T19:37:32.668Z,73.70
2017-09-16T19:40:00.244Z,73.60
2017-09-16T19:42:28.424Z,73.80
2017-09-16T19:44:56.005Z,73.90
2017-09-16T19:47:25.108Z,74.00
2017-09-16T19:49:52.740Z,74.00
2017-09-16T19:52:20.302Z,74.10
2017-09-16T19:54:48.204Z,74.20
2017-09-16T19:57:16.623Z,74.40
2017-09-16T19:59:44.216Z,74.40
2017-09-16T20:02:11.822Z,74.50
2017-09-16T20:04:40.136Z,74.50
2017-09-16T20:07:08.159Z,74.50
2017-09-16T20:09:36.538Z,74.60
2017-09-16T20:12:04.097Z,74.50
2017-09-16T20:14:32.463Z,74.80
2017-09-16T20:17:00.048Z,74.70
2017-09-16T20:19:28.709Z,74.90
2017-09-16T20:21:57.055Z,74.90
2017-09-16T20:24:24.618Z,74.80
2017-09-16T20:26:52.232Z,75.10
2017-09-16T20:29:19.839Z,75.20
2017-09-16T20:31:47.819Z,75.40
2017-09-16T20:34:15.423Z,75.30
2017-09-16T20:36:42.975Z,75.80
2017-09-16T20:39:12.097Z,75.80
2017-09-16T20:41:39.682Z,75.80
2017-09-16T20:44:07.553Z,75.80
2017-09-16T20:46:35.151Z,75.80
2017-09-16T20:49:02.736Z,75.80
2017-09-16T20:51:30.374Z,75.70
2017-09-16T20:53:58.712Z,75.70
2017-09-16T20:56:26.678Z,75.70
2017-09-16T20:58:54.255Z,75.70
2017-09-16T21:01:21.830Z,75.70
2017-09-16T21:03:50.205Z,75.70
2017-09-16T21:06:18.539Z,75.60
2017-09-16T21:08:46.453Z,75.60
2017-09-16T21:11:14.040Z,75.60
2017-09-16T21:13:41.725Z,75.70
2017-09-16T21:16:09.325Z,75.60
2017-09-16T21:18:36.898Z,75.60
2017-09-16T21:21:05.551Z,75.80
2017-09-16T21:23:33.155Z,75.50
2017-09-16T21:26:00.889Z,75.50
2017-09-16T21:28:28.517Z,75.50
2017-09-16T21:30:56.154Z,75.50
2017-09-16T21:33:24.113Z,76.30
2017-09-16T21:35:52.079Z,76.50
2017-09-16T21:38:19.660Z,76.60
2017-09-16T21:40:47.299Z,76.50
2017-09-16T21:43:15.628Z,76.20
2017-09-16T21:45:43.620Z,76.20
2017-09-16T21:48:11.212Z,75.90
2017-09-16T21:50:38.829Z,75.90
2017-09-16T21:53:06.480Z,75.90
2017-09-16T21:55:34.064Z,76.00
2017-09-16T21:58:01.931Z,76.00
2017-09-16T22:00:30.271Z,76.50
2017-09-16T22:02:57.848Z,75.80
2017-09-16T22:05:25.455Z,75.40
2017-09-16T22:07:53.028Z,75.50
2017-09-16T22:10:21.063Z,75.20
2017-09-16T22:12:48.684Z,75.20
2017-09-16T22:15:16.232Z,75.20
2017-09-16T22:17:43.892Z,75.30
2017-09-16T22:20:11.940Z,75.30
2017-09-16T22:22:40.797Z,75.20
2017-09-16T22:25:09.160Z,75.20
2017-09-16T22:27:36.899Z,75.10
2017-09-16T22:30:04.589Z,75.10
2017-09-16T22:32:32.215Z,75.70
2017-09-16T22:35:00.117Z,75.80
2017-09-16T22:37:27.689Z,76.00
2017-09-16T22:39:56.759Z,76.00
2017-09-16T22:42:24.386Z,75.90
2017-09-16T22:44:52.200Z,76.00
2017-09-16T22:47:20.275Z,75.80
2017-09-16T22:49:47.832Z,75.60
2017-09-16T22:52:15.400Z,75.50
2017-09-16T22:54:44.218Z,75.50
2017-09-16T22:57:11.828Z,75.30
2017-09-16T22:59:39.844Z,75.30
2017-09-16T23:02:07.418Z,75.50
2017-09-16T23:04:35.064Z,76.00
2017-09-16T23:07:02.667Z,75.90
2017-09-16T23:09:30.232Z,76.10
2017-09-16T23:11:58.895Z,76.00
2017-09-16T23:14:26.438Z,76.00
2017-09-16T23:16:54.101Z,76.00
2017-09-16T23:19:22.103Z,75.60
2017-09-16T23:21:50.426Z,76.10
2017-09-16T23:24:17.963Z,75.90
2017-09-16T23:26:45.671Z,76.00
2017-09-16T23:29:13.244Z,76.30
2017-09-16T23:31:41.198Z,76.40
2017-09-16T23:34:08.783Z,76.70
2017-09-16T23:36:36.339Z,75.90
2017-09-16T23:39:03.943Z,76.40
2017-09-16T23:41:31.504Z,76.20
2017-09-16T23:43:59.424Z,76.90
2017-09-16T23:46:26.979Z,75.90
2017-09-16T23:48:54.533Z,76.50
2017-09-16T23:51:22.136Z,76.20
2017-09-16T23:53:50.583Z,76.30
2017-09-16T23:56:18.451Z,76.30
2017-09-16T23:58:45.994Z,76.30
